Flight Track Log - Related Links

Times and Time Zones

All times are in EDT time to prevent confusion due to time zone crossing. See the DAL1247 flight status page for this flight to view local times or setup timezone preferences in your user account.

Time Position Orientation Groundspeed Altitude Reporting Facility
EDT Latitude Longitude Course Direction KTS MPH feet Rate Location/Type
09:20PM 40.7500 -73.8333 270° West 172 198 1,900  Level New York TRACON
09:21PM 40.7500 -73.7833 90° East 216 249 4,500 2,400 Climbing New York TRACON
09:22PM 40.8000 -73.8000 346° North 262 302 6,700 2,688 Climbing New York TRACON
09:23PM 40.6563 -74.4674 259° West  Level FlightAware Approximate
09:23PM 40.8667 -73.8833 317° Northwest 271 312 10,100  Level New York TRACON
09:24PM 40.6312 -74.6210 237° Southwest  Level FlightAware Approximate
09:24PM 40.9000 -73.9667 298° West 310 357 11,900  Level New York TRACON
09:25PM 40.6000 -74.7698 270° West  Level FlightAware Approximate
09:25PM 40.8667 -74.1000 252° West 367 422 13,300  Level New York TRACON
09:27PM 40.7964 -74.3647 251° West 398 458 17,000 1,227 Climbing New York Center
09:28PM 40.7492 -74.4828 242° Southwest 410 472 17,000 750 Level New York Center
09:29PM 40.6781 -74.6156 235° Southwest 410 472 18,500 1,800 Climbing New York Center
09:30PM 40.6053 -74.7372 232° Southwest 416 479 20,600 2,050 Climbing New York Center
09:31PM 40.5303 -74.8586 231° Southwest 427 491 22,600 1,750 Climbing New York Center
09:32PM 40.4572 -74.9853 233° Southwest 432 497 24,100 1,650 Climbing New York Center
09:33PM 40.3817 -75.1114 232° Southwest 438 504 25,900 1,850 Climbing New York Center
09:34PM 40.3061 -75.2372 232° Southwest 443 510 27,800 1,800 Climbing New York Center
09:35PM 40.2306 -75.3603 231° Southwest 443 510 29,500 1,400 Climbing New York Center
09:36PM 40.1569 -75.4856 232° Southwest 443 510 30,600 1,050 Climbing New York Center
09:37PM 40.0831 -75.6081 232° Southwest 443 510 31,600 1,100 Climbing New York Center
09:38PM 40.0139 -75.7200 231° Southwest 448 516 32,800 1,100 Climbing New York Center
09:39PM 39.9400 -75.8392 231° Southwest 443 510 33,800 600 Climbing New York Center
09:40PM 39.8703 -75.9558 232° Southwest 433 498 34,000 79 Climbing New York Center
09:42PM 39.7478 -76.1447 230° Southwest 422 486 34,000  Level Washington Center
09:43PM 39.6722 -76.2628 230° Southwest 429 494 34,000  Level Washington Center
09:44PM 39.5964 -76.3833 231° Southwest 429 494 34,000  Level Washington Center
09:45PM 39.5206 -76.5008 230° Southwest 429 494 34,000  Level Washington Center
09:46PM 39.4425 -76.6181 229° Southwest 429 494 34,000  Level Washington Center
09:47PM 39.3686 -76.7378 231° Southwest 429 494 34,000  Level Washington Center
09:48PM 39.2944 -76.8575 231° Southwest 429 494 34,000  Level Washington Center
09:49PM 39.2203 -76.9767 231° Southwest 429 494 34,000  Level Washington Center
09:50PM 39.1478 -77.0931 231° Southwest 429 494 34,000  Level Washington Center
09:51PM 39.0733 -77.2144 232° Southwest 429 494 34,000  Level Washington Center
09:52PM 38.9967 -77.3331 230° Southwest 429 494 34,000  Level Washington Center
09:53PM 38.9219 -77.4486 230° Southwest 434 499 34,000  Level Washington Center
09:54PM 38.8450 -77.5667 230° Southwest 434 499 34,000  Level Washington Center
09:55PM 38.7639 -77.6842 229° Southwest 439 505 34,000  Level Washington Center
09:56PM 38.6911 -77.7914 229° Southwest 444 511 34,000  Level Washington Center
09:57PM 38.6139 -77.9086 230° Southwest 444 511 34,000  Level Washington Center
09:58PM 38.5364 -78.0256 230° Southwest 444 511 34,000  Level Washington Center
09:59PM 38.4569 -78.1422 229° Southwest 444 511 34,000  Level Washington Center
10:00PM 38.3772 -78.2589 229° Southwest 444 511 34,000  Level Washington Center
10:01PM 38.2994 -78.3803 231° Southwest 444 511 34,000  Level Washington Center
10:02PM 38.2175 -78.4961 228° Southwest 444 511 34,000  Level Washington Center
10:03PM 38.1372 -78.6225 231° Southwest 438 504 34,000  Level Washington Center
10:04PM 38.0547 -78.7406 228° Southwest 443 510 34,000  Level Washington Center
10:05PM 37.9767 -78.8558 229° Southwest 443 510 34,000  Level Washington Center
10:06PM 37.9050 -78.9581 228° Southwest 443 510 34,000  Level Washington Center
10:07PM 37.8244 -79.0753 229° Southwest 443 510 34,000  Level Washington Center
10:08PM 37.7439 -79.1897 228° Southwest 443 510 34,000  Level Washington Center
10:09PM 37.6544 -79.3167 228° Southwest 443 510 34,000  Level Washington Center
10:10PM 37.5736 -79.4331 229° Southwest 443 510 34,000  Level Washington Center
10:11PM 37.4906 -79.5467 227° Southwest 443 510 34,000  Level Washington Center
10:12PM 37.4139 -79.6578 229° Southwest 459 528 34,000  Level Washington Center
10:13PM 37.3261 -79.7811 228° Southwest 459 528 34,000  Level Washington Center
10:14PM 37.1978 -79.9611 228° Southwest 456 525 34,000  Level Atlanta Center
10:15PM 37.1183 -80.0747 229° Southwest 451 519 34,000  Level Atlanta Center
10:16PM 37.0383 -80.1878 228° Southwest 446 513 34,000  Level Atlanta Center
10:17PM 36.9567 -80.3061 229° Southwest 446 513 34,000  Level Atlanta Center
10:18PM 36.8825 -80.4056 227° Southwest 446 513 34,000  Level Atlanta Center
10:19PM 36.8003 -80.5208 228° Southwest 446 513 34,000  Level Atlanta Center
10:20PM 36.7219 -80.6253 227° Southwest 440 506 34,000  Level Atlanta Center
10:21PM 36.6417 -80.7400 229° Southwest 435 501 34,000  Level Atlanta Center
10:22PM 36.5611 -80.8519 228° Southwest 441 507 34,000  Level Atlanta Center
10:23PM 36.4786 -80.9611 227° Southwest 441 507 34,000  Level Atlanta Center
10:24PM 36.3958 -81.0753 228° Southwest 441 507 34,000  Level Atlanta Center
10:25PM 36.3150 -81.1839 227° Southwest 441 507 34,000  Level Atlanta Center
10:26PM 36.2319 -81.2975 228° Southwest 441 507 34,000  Level Atlanta Center
10:27PM 36.1408 -81.4214 228° Southwest 446 513 34,000  Level Atlanta Center
10:28PM 36.0597 -81.5319 228° Southwest 446 513 34,000  Level Atlanta Center
10:29PM 35.9786 -81.6394 227° Southwest 446 513 34,000  Level Atlanta Center
10:30PM 35.8950 -81.7497 227° Southwest 446 513 34,000  Level Atlanta Center
10:31PM 35.8117 -81.8597 227° Southwest 446 513 34,000  Level Atlanta Center
10:32PM 35.7319 -81.9667 227° Southwest 440 506 34,000  Level Atlanta Center
10:33PM 35.6483 -82.0736 226° Southwest 440 506 34,000  Level Atlanta Center
10:34PM 35.5622 -82.1803 225° Southwest 435 501 34,000  Level Atlanta Center
10:35PM 35.4761 -82.2817 224° Southwest 435 501 34,000  Level Atlanta Center
10:36PM 35.3900 -82.3803 223° Southwest 435 501 34,000  Level Atlanta Center
10:37PM 35.3017 -82.4814 223° Southwest 435 501 34,000  Level Atlanta Center
10:38PM 35.2153 -82.5819 224° Southwest 430 495 34,000  Level Atlanta Center
10:39PM 35.1369 -82.6697 223° Southwest 423 487 34,000  Level Atlanta Center
10:40PM 35.0503 -82.7675 223° Southwest 431 496 34,000  Level Atlanta Center
10:41PM 34.9617 -82.8678 223° Southwest 436 502 34,000  Level Atlanta Center
10:42PM 34.8625 -82.9781 222° Southwest 441 507 34,000  Level Atlanta Center
10:43PM 34.7756 -83.0778 223° Southwest 436 502 34,000 -150 Level Atlanta Center
10:44PM 34.6867 -83.1747 222° Southwest 431 496 33,700 -1,750 Descending Atlanta Center
10:45PM 34.5975 -83.2767 223° Southwest 442 509 30,500 -3,450 Descending Atlanta Center
10:46PM 34.5064 -83.3808 223° Southwest 453 521 26,800 -3,200 Descending Atlanta Center
10:47PM 34.4169 -83.4797 222° Southwest 448 516 24,100 -2,750 Descending Atlanta Center
10:48PM 34.3278 -83.5811 223° Southwest 443 510 21,300 -2,800 Descending Atlanta Center
10:49PM 34.2403 -83.6769 222° Southwest 436 502 18,500 -2,400 Descending Atlanta Center
10:50PM 34.1675 -83.7575 222° Southwest 423 487 16,500 -2,150 Descending Atlanta Center
10:51PM 34.0842 -83.8481 222° Southwest 405 466 14,200 -2,505 Descending Atlanta Center
10:52PM 34.0333 -83.9000 220° Southwest 383 441 12,700 -1,671 Descending Atlanta TRACON
10:53PM 33.9833 -83.9667 228° Southwest 360 414 12,000 -368 Descending Atlanta TRACON
10:54PM 33.8833 -84.0333 209° Southwest 367 422 12,000  Level Atlanta TRACON
10:54PM 33.8339 -84.0689 211° Southwest 379 436 12,000  Level Atlanta Center
10:55PM 33.7419 -84.1411 213° Southwest 373 429 12,000  Level Atlanta Center
10:56PM 33.7294 -84.2411 261° West 300 345 12,000 -62 Level Atlanta Center
10:57PM 33.7333 -84.3000 275° West 298 343 11,900 -1,282 Descending Atlanta TRACON
10:58PM 33.7333 -84.4167 270° West 293 337 9,800 -2,200 Descending Atlanta TRACON
10:59PM 33.7333 -84.4833 270° West 280 322 7,500 -2,700 Descending Atlanta TRACON
11:00PM 33.7333 -84.6000 270° West 275 316 4,400 -2,158 Descending Atlanta TRACON
11:01PM 33.7000 -84.6500 231° Southwest 257 296 3,400 -700 Descending Atlanta TRACON
11:02PM 33.6500 -84.6000 140° Southeast 177 204 3,000 -469 Descending Atlanta TRACON
11:04PM 33.6500 -84.5000 90° East 131 151 1,900 -550 Descending Atlanta TRACON
11:06PM 33.6367 -84.4279 103° East  Level Estimated
11:13PM 33.6367 -84.4279 103° East  Level Estimated
11:14PM 33.6367 -84.4279 103° East  Level Estimated

Login

Don't have an account? Register now (free) for customized features, flight alerts, and more!